Time;durP1;ratioP1;P1;durP2;ratioP2;P2;SDS_P1;SDS_P2;PMS_P1;PMS_P2;Temp;Humidity;BMP_temperature;BMP_pressure;BME280_temperature;BME280_humidity;BME280_pressure;Samples;Min_cycle;Max_cycle;Signal;HPM_P1;HPM_P2
2022/03/06 00:00:46;;;;;;;13.15;7.88;;;;;;;18.41;40.05;102573.53;5104999;28;20055;-38
2022/03/06 00:03:13;;;;;;;11.93;7.50;;;;;;;18.38;39.89;102584.50;5102292;28;20325;-38
2022/03/06 00:05:40;;;;;;;12.50;7.32;;;;;;;18.36;40.42;102582.88;5099057;28;20063;-38
2022/03/06 00:08:06;;;;;;;12.95;7.85;;;;;;;18.33;40.29;102588.47;5104170;28;20057;-39
2022/03/06 00:10:33;;;;;;;11.05;7.18;;;;;;;18.30;40.42;102580.66;5108756;28;20138;-39
2022/03/06 00:13:00;;;;;;;9.40;6.80;;;;;;;18.28;40.61;102582.59;5100822;28;20126;-38
2022/03/06 00:15:26;;;;;;;11.02;7.10;;;;;;;18.23;40.70;102582.94;5104758;28;20062;-39
2022/03/06 00:17:55;;;;;;;10.98;6.38;;;;;;;18.19;40.47;102590.34;5102125;28;20052;-38
2022/03/06 00:20:22;;;;;;;10.52;6.70;;;;;;;18.16;40.37;102589.72;5101975;28;20521;-39
2022/03/06 00:22:49;;;;;;;11.23;6.68;;;;;;;18.14;40.66;102597.88;5102028;28;20439;-39
2022/03/06 00:25:16;;;;;;;11.73;6.95;;;;;;;18.12;40.52;102601.63;5106334;28;20123;-40
2022/03/06 00:27:42;;;;;;;11.30;6.72;;;;;;;18.09;40.68;102592.00;5103010;28;20135;-38
2022/03/06 00:30:09;;;;;;;10.23;6.72;;;;;;;18.08;40.68;102595.63;5105525;28;20066;-38
2022/03/06 00:32:36;;;;;;;10.35;6.50;;;;;;;18.01;40.89;102597.06;5101545;28;20138;-38
2022/03/06 00:35:03;;;;;;;10.25;6.93;;;;;;;17.99;41.31;102598.97;5101555;28;20041;-39
2022/03/06 00:37:29;;;;;;;9.38;6.18;;;;;;;17.93;41.51;102599.41;5104889;28;20127;-39
2022/03/06 00:39:56;;;;;;;11.73;6.38;;;;;;;17.91;40.88;102598.69;5103174;28;20327;-39
2022/03/06 00:42:23;;;;;;;8.98;6.22;;;;;;;17.88;41.60;102607.78;5105405;28;20046;-39
2022/03/06 00:44:50;;;;;;;13.43;6.50;;;;;;;17.85;41.46;102610.72;5105724;28;20039;-40
2022/03/06 00:47:17;;;;;;;9.93;5.65;;;;;;;17.83;41.30;102611.78;5101114;28;20132;-39
2022/03/06 00:49:44;;;;;;;9.48;5.68;;;;;;;17.81;41.48;102609.22;5099478;28;20047;-39
2022/03/06 00:52:12;;;;;;;9.82;6.13;;;;;;;17.79;41.19;102616.50;5105471;28;20035;-39
2022/03/06 00:54:39;;;;;;;8.45;5.60;;;;;;;17.76;41.50;102606.84;5101798;28;20059;-40
2022/03/06 00:57:05;;;;;;;8.35;5.70;;;;;;;17.74;41.07;102606.09;5103614;28;20058;-39
2022/03/06 00:59:35;;;;;;;9.05;5.90;;;;;;;17.72;41.21;102607.13;5101373;28;20048;-39
2022/03/06 01:02:04;;;;;;;8.20;5.25;;;;;;;17.71;41.74;102614.31;5103474;28;20044;-39
2022/03/06 01:04:32;;;;;;;9.23;5.63;;;;;;;17.70;41.51;102625.19;5094072;28;20594;-39
2022/03/06 01:06:58;;;;;;;9.35;5.82;;;;;;;17.67;41.54;102612.81;5100789;28;20132;-39
2022/03/06 01:09:25;;;;;;;7.00;5.03;;;;;;;17.65;41.65;102619.28;5101329;28;20067;-38
2022/03/06 01:11:52;;;;;;;8.95;5.78;;;;;;;17.65;41.15;102630.88;5104833;28;20044;-39
2022/03/06 01:14:19;;;;;;;8.38;5.78;;;;;;;17.63;41.41;102630.09;5103828;28;20047;-40
2022/03/06 01:16:45;;;;;;;9.95;5.95;;;;;;;17.61;41.30;102640.09;5100279;28;20148;-39
2022/03/06 01:19:12;;;;;;;8.73;5.78;;;;;;;17.59;42.32;102627.75;5099373;28;20429;-39
2022/03/06 01:21:39;;;;;;;8.23;5.07;;;;;;;17.58;41.94;102639.44;5103392;28;20048;-39
2022/03/06 01:24:06;;;;;;;9.32;5.60;;;;;;;17.57;41.65;102640.38;5101217;28;20043;-40
2022/03/06 01:26:33;;;;;;;8.30;4.80;;;;;;;17.56;41.08;102641.34;5104211;28;20058;-39
2022/03/06 01:28:59;;;;;;;8.35;5.28;;;;;;;17.55;41.42;102643.19;5102889;28;20529;-39
2022/03/06 01:31:26;;;;;;;8.23;5.55;;;;;;;17.52;42.10;102640.72;5100685;28;20066;-39
2022/03/06 01:33:52;;;;;;;10.68;5.30;;;;;;;17.52;41.71;102641.56;5101547;28;20039;-39
2022/03/06 01:36:19;;;;;;;8.15;5.05;;;;;;;17.51;41.22;102649.72;5101999;28;20441;-40
2022/03/06 01:38:45;;;;;;;7.65;5.22;;;;;;;17.51;41.27;102655.09;5103456;28;20036;-39
2022/03/06 01:41:12;;;;;;;7.82;5.18;;;;;;;17.48;41.70;102649.94;5103741;28;20040;-39
2022/03/06 01:43:38;;;;;;;9.25;5.47;;;;;;;17.46;41.80;102651.88;5098896;28;20043;-39
2022/03/06 01:46:05;;;;;;;7.78;5.13;;;;;;;17.46;41.79;102651.88;5105009;28;20306;-39
2022/03/06 01:48:32;;;;;;;7.65;5.05;;;;;;;17.43;41.41;102660.97;5098107;28;20487;-39
2022/03/06 01:50:58;;;;;;;6.57;4.55;;;;;;;17.44;41.61;102656.47;5098787;28;20484;-39
2022/03/06 01:53:25;;;;;;;6.57;4.82;;;;;;;17.41;41.76;102662.91;5102961;28;20126;-39
2022/03/06 01:55:51;;;;;;;7.57;4.57;;;;;;;17.41;41.66;102660.22;5103700;28;20122;-40
2022/03/06 01:58:18;;;;;;;6.72;4.60;;;;;;;17.39;42.12;102659.47;5101901;28;20055;-40
2022/03/06 02:00:49;;;;;;;6.05;4.20;;;;;;;17.39;41.60;102664.81;5102408;28;20051;-40
2022/03/06 02:03:18;;;;;;;8.45;5.80;;;;;;;17.38;41.46;102667.63;5103853;28;20082;-40
2022/03/06 02:05:45;;;;;;;7.03;4.60;;;;;;;17.37;42.17;102673.97;5102658;28;20119;-38
2022/03/06 02:08:12;;;;;;;8.63;4.97;;;;;;;17.36;42.20;102667.72;5100437;28;20039;-39
2022/03/06 02:10:38;;;;;;;7.78;4.55;;;;;;;17.36;41.96;102672.22;5099707;28;20119;-39
2022/03/06 02:13:05;;;;;;;6.20;4.55;;;;;;;17.35;41.79;102674.03;5099415;28;20074;-40
2022/03/06 02:15:32;;;;;;;6.40;4.60;;;;;;;17.34;42.25;102677.69;5101125;28;20514;-40
2022/03/06 02:17:59;;;;;;;6.57;4.40;;;;;;;17.33;42.30;102672.44;5100547;28;20044;-40
2022/03/06 02:20:26;;;;;;;6.35;4.70;;;;;;;17.31;42.32;102669.84;5100122;28;20036;-39
2022/03/06 02:22:55;;;;;;;6.65;4.32;;;;;;;17.29;42.20;102666.44;5100758;28;20056;-39
2022/03/06 02:25:28;;;;;;;7.20;4.50;;;;;;;17.27;42.16;102669.19;5103153;28;20320;-40
2022/03/06 02:27:57;;;;;;;6.45;4.80;;;;;;;17.26;41.51;102670.16;5102603;28;20040;-39
2022/03/06 02:30:28;;;;;;;6.60;4.13;;;;;;;17.24;42.03;102664.03;5102071;28;20059;-40
2022/03/06 02:32:59;;;;;;;6.55;4.47;;;;;;;17.24;42.08;102663.19;5099439;28;20132;-40
2022/03/06 02:35:26;;;;;;;7.38;4.20;;;;;;;17.21;41.59;102666.94;5102849;28;20062;-39
2022/03/06 02:37:53;;;;;;;6.88;4.07;;;;;;;17.20;42.08;102659.84;5099102;28;20043;-38
2022/03/06 02:40:21;;;;;;;6.65;4.60;;;;;;;17.20;41.97;102667.03;5104665;28;20039;-39
2022/03/06 02:42:50;;;;;;;6.20;4.47;;;;;;;17.17;41.85;102659.22;5102801;28;20041;-38
2022/03/06 02:45:22;;;;;;;6.30;4.07;;;;;;;17.15;42.28;102667.34;5101734;28;20059;-40
2022/03/06 02:47:50;;;;;;;5.80;4.25;;;;;;;17.13;42.17;102661.25;5101575;28;20051;-38
2022/03/06 02:50:20;;;;;;;6.40;4.15;;;;;;;17.13;42.55;102671.13;5100212;28;20126;-38
2022/03/06 02:52:47;;;;;;;5.97;4.03;;;;;;;17.11;41.59;102670.34;5099942;28;20130;-39
2022/03/06 02:55:15;;;;;;;5.20;3.67;;;;;;;17.09;42.49;102665.09;5101753;28;20058;-39
2022/03/06 02:57:43;;;;;;;6.03;4.03;;;;;;;17.07;42.27;102664.31;5103604;28;20047;-39
2022/03/06 03:00:13;;;;;;;5.43;3.78;;;;;;;17.06;41.99;102659.94;5102020;28;20338;-40
2022/03/06 03:02:40;;;;;;;7.00;4.60;;;;;;;17.05;41.82;102662.72;5100682;28;20054;-40
2022/03/06 03:05:08;;;;;;;5.82;3.65;;;;;;;17.02;42.09;102661.97;5103025;28;20104;-38
2022/03/06 03:07:37;;;;;;;5.82;3.78;;;;;;;17.01;42.44;102659.41;5098465;28;20248;-39
2022/03/06 03:10:06;;;;;;;7.28;4.20;;;;;;;17.00;41.95;102661.22;5098645;28;20130;-40
2022/03/06 03:12:32;;;;;;;4.78;3.53;;;;;;;16.98;42.47;102670.31;5100697;28;20510;-40
2022/03/06 03:14:59;;;;;;;6.90;3.90;;;;;;;16.96;42.07;102664.19;5103443;28;20054;-38
2022/03/06 03:17:25;;;;;;;6.28;3.85;;;;;;;16.94;42.36;102666.97;5102550;28;20051;-40
2022/03/06 03:19:52;;;;;;;5.13;3.63;;;;;;;16.94;42.55;102666.97;5100300;28;20242;-38
2022/03/06 03:22:18;;;;;;;5.63;3.90;;;;;;;16.93;41.71;102669.75;5105081;28;20130;-38
2022/03/06 03:24:45;;;;;;;5.15;3.25;;;;;;;16.91;42.48;102667.16;5103296;28;20127;-38
2022/03/06 03:27:11;;;;;;;4.95;3.50;;;;;;;16.90;42.33;102660.09;5107956;28;20040;-38
2022/03/06 03:29:38;;;;;;;5.03;3.80;;;;;;;16.90;42.95;102668.13;5102544;28;20369;-39
2022/03/06 03:32:05;;;;;;;5.35;3.53;;;;;;;16.89;42.54;102673.59;5103126;28;20044;-39
2022/03/06 03:34:32;;;;;;;4.93;3.35;;;;;;;16.89;42.68;102662.91;5107405;28;20055;-38
2022/03/06 03:36:59;;;;;;;6.15;3.88;;;;;;;16.87;42.13;102670.16;5104652;28;20077;-40
2022/03/06 03:39:26;;;;;;;5.07;3.40;;;;;;;16.85;41.80;102672.09;5103897;28;20146;-39
2022/03/06 03:41:53;;;;;;;5.47;3.80;;;;;;;16.85;42.10;102674.78;5108066;28;20437;-38
2022/03/06 03:44:20;;;;;;;4.38;3.38;;;;;;;16.84;42.39;102683.75;5104253;28;20048;-39
2022/03/06 03:46:46;;;;;;;5.82;3.38;;;;;;;16.82;42.33;102683.00;5104038;28;20043;-39
2022/03/06 03:49:14;;;;;;;4.95;3.72;;;;;;;16.81;41.90;102679.47;5105449;28;20050;-39
2022/03/06 03:51:41;;;;;;;5.95;3.45;;;;;;;16.80;42.59;102676.88;5105258;28;20293;-39
2022/03/06 03:54:09;;;;;;;4.75;3.20;;;;;;;16.80;42.60;102679.53;5102909;28;20138;-39
2022/03/06 03:56:35;;;;;;;5.55;3.65;;;;;;;16.77;42.30;102680.63;5103642;28;20403;-39
2022/03/06 03:59:02;;;;;;;3.95;3.35;;;;;;;16.75;42.34;102678.03;5102040;28;20054;-39
2022/03/06 04:01:28;;;;;;;5.32;3.67;;;;;;;16.76;42.25;102678.88;5106977;28;20055;-39
2022/03/06 04:03:55;;;;;;;5.32;3.42;;;;;;;16.73;42.05;102679.97;5102569;28;20051;-39
2022/03/06 04:06:22;;;;;;;5.88;3.60;;;;;;;16.73;42.64;102679.09;5102019;28;20048;-40
2022/03/06 04:08:48;;;;;;;5.03;3.63;;;;;;;16.72;43.05;102682.69;5104137;28;20044;-39
2022/03/06 04:11:15;;;;;;;6.93;3.67;;;;;;;16.71;42.08;102687.19;5105280;28;20323;-39
2022/03/06 04:13:41;;;;;;;5.32;3.20;;;;;;;16.71;42.04;102686.34;5104131;28;20044;-39
2022/03/06 04:16:08;;;;;;;4.93;3.50;;;;;;;16.70;42.64;102689.97;5105775;28;20298;-38
2022/03/06 04:18:34;;;;;;;5.35;3.63;;;;;;;16.68;42.63;102684.72;5103834;28;20039;-38
2022/03/06 04:21:01;;;;;;;4.47;3.17;;;;;;;16.67;42.50;102688.34;5104673;28;20126;-38
2022/03/06 04:23:27;;;;;;;4.72;3.22;;;;;;;16.67;42.88;102696.38;5103739;28;20126;-39
2022/03/06 04:25:54;;;;;;;4.90;3.20;;;;;;;16.66;42.56;102692.00;5104020;28;20070;-39
2022/03/06 04:28:20;;;;;;;5.72;3.35;;;;;;;16.65;41.89;102690.28;5105313;28;20040;-40
2022/03/06 04:30:47;;;;;;;5.05;3.42;;;;;;;16.65;41.79;102692.97;5102687;28;20519;-39
2022/03/06 04:33:14;;;;;;;6.00;3.70;;;;;;;16.65;43.06;102697.47;5104002;28;20086;-40
2022/03/06 04:35:40;;;;;;;4.65;3.42;;;;;;;16.62;42.07;102687.78;5103964;28;20044;-39
2022/03/06 04:38:07;;;;;;;6.25;3.50;;;;;;;16.61;41.85;102690.59;5103372;28;20046;-39
2022/03/06 04:40:33;;;;;;;5.15;3.47;;;;;;;16.60;42.13;102699.53;5103748;28;20040;-39
2022/03/06 04:43:00;;;;;;;4.50;3.15;;;;;;;16.59;42.47;102695.16;5103630;28;20547;-38
2022/03/06 04:45:26;;;;;;;4.80;3.65;;;;;;;16.58;42.82;102707.69;5105634;28;20127;-39
2022/03/06 04:47:53;;;;;;;3.70;2.80;;;;;;;16.57;41.92;102711.34;5101198;28;20143;-39
2022/03/06 04:50:20;;;;;;;4.85;3.70;;;;;;;16.56;42.76;102712.25;5105492;28;20062;-39
2022/03/06 04:52:51;;;;;;;6.72;3.20;;;;;;;16.57;41.98;102722.03;5103052;28;20080;-39
2022/03/06 04:55:18;;;;;;;5.03;3.10;;;;;;;16.56;41.81;102719.44;5102785;28;20052;-39
2022/03/06 04:57:46;;;;;;;3.75;3.00;;;;;;;16.54;42.16;102719.56;5105842;28;20142;-40
2022/03/06 05:00:14;;;;;;;4.55;3.03;;;;;;;16.53;42.64;102729.41;5104652;27;20217;-41
2022/03/06 05:02:41;;;;;;;4.85;3.35;;;;;;;16.52;42.32;102727.69;5097950;28;20044;-39
2022/03/06 05:05:09;;;;;;;4.97;3.20;;;;;;;16.53;41.97;102728.56;5105744;28;20043;-38
2022/03/06 05:07:36;;;;;;;3.67;2.58;;;;;;;16.57;41.65;102732.75;5104709;28;20039;-38
2022/03/06 05:10:06;;;;;;;4.15;2.92;;;;;;;16.63;42.54;102729.66;5101127;28;20048;-39
2022/03/06 05:12:33;;;;;;;4.50;3.10;;;;;;;16.70;41.60;102732.81;5105279;28;20158;-39
2022/03/06 05:15:00;;;;;;;6.07;3.90;;;;;;;16.76;42.53;102732.44;5104348;28;20049;-39
2022/03/06 05:17:26;;;;;;;5.15;3.35;;;;;;;16.81;42.42;102730.34;5101657;28;20055;-38
2022/03/06 05:19:53;;;;;;;5.57;3.47;;;;;;;16.86;42.35;102746.97;5103469;28;20658;-39
2022/03/06 05:22:19;;;;;;;4.78;3.35;;;;;;;16.93;42.04;102742.09;5100757;28;20048;-38
2022/03/06 05:24:46;;;;;;;5.32;3.22;;;;;;;17.00;42.01;102744.25;5103692;28;20051;-38
2022/03/06 05:27:12;;;;;;;3.47;2.85;;;;;;;17.08;42.16;102742.88;5104504;28;20157;-39
2022/03/06 05:29:39;;;;;;;4.78;3.05;;;;;;;17.14;42.06;102748.69;5098945;28;20050;-39
2022/03/06 05:32:06;;;;;;;4.88;3.38;;;;;;;17.21;42.56;102744.66;5102950;28;20378;-38
2022/03/06 05:34:32;;;;;;;4.70;3.30;;;;;;;17.26;42.25;102742.53;5104418;28;20048;-38
2022/03/06 05:36:59;;;;;;;6.22;3.08;;;;;;;17.33;41.80;102742.97;5101254;28;20431;-39
2022/03/06 05:39:26;;;;;;;3.72;3.03;;;;;;;17.37;42.29;102743.66;5102250;28;20314;-38
2022/03/06 05:41:52;;;;;;;4.45;3.05;;;;;;;17.39;41.57;102747.06;5103671;28;20059;-39
2022/03/06 05:44:19;;;;;;;4.85;3.30;;;;;;;17.40;41.80;102749.63;5100499;28;20112;-40
2022/03/06 05:46:46;;;;;;;3.67;2.88;;;;;;;17.42;41.51;102747.72;5104055;28;20349;-39
2022/03/06 05:49:13;;;;;;;4.20;2.97;;;;;;;17.45;41.36;102746.66;5103979;28;20556;-40
2022/03/06 05:51:41;;;;;;;3.72;2.97;;;;;;;17.44;41.60;102751.13;5103703;28;20348;-38
2022/03/06 05:54:08;;;;;;;4.32;3.20;;;;;;;17.42;41.24;102758.44;5100038;28;20063;-39
2022/03/06 05:56:35;;;;;;;5.13;3.50;;;;;;;17.42;41.74;102763.81;5101174;28;20382;-40
2022/03/06 05:59:03;;;;;;;4.88;3.10;;;;;;;17.41;41.18;102766.59;5100643;28;20397;-39
2022/03/06 06:01:30;;;;;;;5.22;2.83;;;;;;;17.37;41.27;102770.44;5103769;28;20507;-38
2022/03/06 06:03:58;;;;;;;3.97;3.10;;;;;;;17.34;41.64;102771.50;5103755;28;20073;-38
2022/03/06 06:06:26;;;;;;;4.05;2.90;;;;;;;17.31;41.17;102785.09;5101188;28;20040;-38
2022/03/06 06:08:53;;;;;;;3.85;2.95;;;;;;;17.25;41.72;102783.69;5101587;28;20070;-39
2022/03/06 06:11:21;;;;;;;4.43;3.00;;;;;;;17.22;41.01;102783.88;5100583;28;20043;-39
2022/03/06 06:13:48;;;;;;;3.42;2.72;;;;;;;17.18;41.57;102784.19;5102346;28;20048;-38
2022/03/06 06:16:15;;;;;;;5.75;2.78;;;;;;;17.15;41.11;102790.59;5101959;28;20032;-38
2022/03/06 06:18:41;;;;;;;2.88;2.58;;;;;;;17.12;41.43;102793.47;5100483;28;20057;-40
2022/03/06 06:21:10;;;;;;;4.43;3.28;;;;;;;17.08;41.22;102796.47;5101552;28;20138;-38
2022/03/06 06:23:38;;;;;;;3.38;2.58;;;;;;;17.03;41.47;102789.59;5100508;28;20047;-37
2022/03/06 06:26:05;;;;;;;4.03;3.05;;;;;;;17.00;41.55;102796.94;5099579;28;20151;-38
2022/03/06 06:28:32;;;;;;;3.75;2.67;;;;;;;16.98;41.36;102810.47;5100316;28;20039;-38
2022/03/06 06:30:58;;;;;;;3.75;2.47;;;;;;;17.00;42.22;102805.00;5103189;28;20135;-40
2022/03/06 06:33:25;;;;;;;4.10;2.90;;;;;;;17.05;41.85;102816.28;5098490;28;20057;-38
2022/03/06 06:35:51;;;;;;;4.55;3.03;;;;;;;17.09;41.53;102820.50;5104201;28;20146;-39
2022/03/06 06:38:20;;;;;;;3.63;3.05;;;;;;;17.13;41.66;102811.28;5097977;28;20060;-38
2022/03/06 06:40:48;;;;;;;4.70;3.10;;;;;;;17.19;42.04;102818.91;5100570;28;20138;-39
2022/03/06 06:43:15;;;;;;;3.67;2.90;;;;;;;17.26;42.44;102817.56;5101481;28;20122;-39
2022/03/06 06:45:42;;;;;;;4.20;2.70;;;;;;;17.35;41.72;102824.13;5100103;28;20579;-38
2022/03/06 06:48:09;;;;;;;4.72;3.08;;;;;;;17.43;41.53;102823.63;5100431;28;20044;-39
2022/03/06 06:50:35;;;;;;;5.18;3.40;;;;;;;17.50;42.17;102824.97;5103721;28;20181;-39
2022/03/06 06:53:02;;;;;;;3.25;2.53;;;;;;;17.58;41.48;102835.16;5100965;28;20067;-39
2022/03/06 06:55:29;;;;;;;3.55;2.42;;;;;;;17.66;41.66;102835.53;5099223;28;20131;-39
2022/03/06 06:57:55;;;;;;;5.18;3.10;;;;;;;17.72;41.70;102843.13;5106595;28;20040;-39
2022/03/06 07:00:22;;;;;;;3.67;2.97;;;;;;;17.78;41.84;102834.72;5105381;28;20115;-40
2022/03/06 07:02:49;;;;;;;4.47;2.72;;;;;;;17.84;41.61;102847.72;5103387;28;20050;-39
2022/03/06 07:05:15;;;;;;;3.97;2.50;;;;;;;17.88;42.00;102851.06;5105212;28;20426;-40
2022/03/06 07:07:42;;;;;;;4.05;3.10;;;;;;;17.92;41.43;102860.63;5106096;28;20054;-39
2022/03/06 07:10:09;;;;;;;4.43;3.00;;;;;;;17.95;41.33;102853.22;5102983;28;20382;-39
2022/03/06 07:12:43;;;;;;;3.58;2.30;;;;;;;17.97;41.18;102856.66;5107018;28;20470;-41
2022/03/06 07:15:11;;;;;;;3.85;2.60;;;;;;;17.99;41.23;102862.78;5103547;28;20051;-40
2022/03/06 07:17:38;;;;;;;3.40;2.60;;;;;;;17.99;41.32;102864.59;5106865;28;20174;-39
2022/03/06 07:20:05;;;;;;;3.90;2.67;;;;;;;17.99;41.35;102867.28;5107754;28;20345;-39
2022/03/06 07:22:32;;;;;;;2.95;2.33;;;;;;;17.98;41.16;102873.63;5105761;28;20043;-39
2022/03/06 07:24:59;;;;;;;3.28;2.78;;;;;;;17.96;41.25;102870.16;5104707;28;20163;-39
2022/03/06 07:27:25;;;;;;;5.82;2.60;;;;;;;17.93;41.02;102875.72;5105523;28;20050;-39
2022/03/06 07:29:52;;;;;;;4.32;2.63;;;;;;;17.90;41.03;102882.19;5104962;28;20139;-39
2022/03/06 07:32:18;;;;;;;3.17;2.38;;;;;;;17.86;41.39;102880.69;5106087;28;20449;-39
2022/03/06 07:34:45;;;;;;;3.05;2.08;;;;;;;17.82;40.82;102879.16;5108269;28;20048;-39
2022/03/06 07:37:11;;;;;;;3.63;2.40;;;;;;;17.80;41.35;102878.38;5103922;28;20059;-39
2022/03/06 07:39:38;;;;;;;4.00;2.28;;;;;;;17.76;41.17;102884.91;5103965;28;20047;-40
2022/03/06 07:42:05;;;;;;;3.47;2.35;;;;;;;17.73;41.01;102885.97;5101401;28;20423;-40
2022/03/06 07:44:32;;;;;;;2.92;2.42;;;;;;;17.71;40.69;102892.38;5101809;28;20044;-39
2022/03/06 07:46:58;;;;;;;3.85;2.47;;;;;;;17.69;40.82;102897.00;5102525;28;20422;-39
2022/03/06 07:49:25;;;;;;;3.60;2.53;;;;;;;17.67;40.90;102899.78;5103973;28;20046;-38
2022/03/06 07:51:51;;;;;;;4.13;2.88;;;;;;;17.64;41.55;102905.31;5102918;28;20047;-39
2022/03/06 07:54:18;;;;;;;3.97;2.55;;;;;;;17.62;41.01;102898.38;5102361;28;20040;-38
2022/03/06 07:56:45;;;;;;;2.95;2.08;;;;;;;17.59;41.65;102903.91;5102374;28;20374;-40
2022/03/06 07:59:12;;;;;;;4.82;2.30;;;;;;;17.58;41.47;102912.94;5099186;28;20094;-40
2022/03/06 08:01:38;;;;;;;4.18;3.00;;;;;;;17.56;41.50;102910.34;5104850;28;20134;-40
2022/03/06 08:04:05;;;;;;;4.38;2.53;;;;;;;17.54;40.84;102919.47;5102689;28;20056;-39
2022/03/06 08:06:32;;;;;;;3.33;2.60;;;;;;;17.54;40.90;102909.59;5101720;28;20097;-38
2022/03/06 08:09:04;;;;;;;3.83;2.28;;;;;;;17.55;41.31;102913.97;5105696;28;20102;-39
2022/03/06 08:11:31;;;;;;;3.67;2.42;;;;;;;17.57;40.94;102916.56;5102903;28;20138;-39
2022/03/06 08:13:57;;;;;;;5.38;2.55;;;;;;;17.60;41.14;102917.22;5101134;28;20794;-39
2022/03/06 08:16:24;;;;;;;2.65;1.98;;;;;;;17.62;40.88;102926.03;5099395;28;20133;-40
2022/03/06 08:18:50;;;;;;;3.10;2.42;;;;;;;17.65;41.13;102920.47;5104864;28;20138;-39
2022/03/06 08:21:17;;;;;;;3.55;1.88;;;;;;;17.67;40.84;102920.38;5100457;28;20545;-39
2022/03/06 08:23:44;;;;;;;2.88;2.00;;;;;;;17.70;40.70;102921.03;5102739;28;20042;-39
2022/03/06 08:26:10;;;;;;;3.75;2.40;;;;;;;17.73;40.96;102926.19;5103513;28;20052;-39
2022/03/06 08:28:37;;;;;;;4.63;2.30;;;;;;;17.76;40.49;102928.69;5102630;28;20039;-38
2022/03/06 08:31:03;;;;;;;3.70;2.38;;;;;;;17.80;40.46;102932.03;5102463;28;20131;-39
2022/03/06 08:33:30;;;;;;;3.10;2.53;;;;;;;17.83;40.24;102934.53;5103110;28;20043;-39
2022/03/06 08:35:57;;;;;;;3.30;2.30;;;;;;;17.87;40.24;102937.88;5101555;28;20449;-39
2022/03/06 08:38:23;;;;;;;2.97;1.92;;;;;;;17.90;40.25;102932.31;5101487;28;20115;-39
2022/03/06 08:40:50;;;;;;;3.45;2.60;;;;;;;17.92;40.64;102927.69;5101593;28;20085;-39
2022/03/06 08:43:16;;;;;;;3.45;2.55;;;;;;;17.96;40.34;102940.78;5102269;28;20047;-38
2022/03/06 08:45:43;;;;;;;3.88;2.60;;;;;;;17.98;40.56;102933.50;5101911;28;20185;-38
2022/03/06 08:48:10;;;;;;;3.28;2.58;;;;;;;18.02;40.27;102941.38;5102393;28;20049;-38
2022/03/06 08:50:37;;;;;;;4.32;2.40;;;;;;;18.04;39.88;102936.75;5100350;28;20090;-39
2022/03/06 08:53:03;;;;;;;3.88;2.60;;;;;;;18.07;40.17;102939.22;5102740;28;20462;-38
2022/03/06 08:55:30;;;;;;;2.92;2.53;;;;;;;18.09;39.79;102940.84;5102478;28;20138;-38
2022/03/06 08:57:56;;;;;;;3.75;2.50;;;;;;;18.12;40.14;102939.75;5100390;28;20388;-39
2022/03/06 09:00:23;;;;;;;4.20;2.67;;;;;;;18.14;39.95;102952.13;5102210;28;20126;-39
2022/03/06 09:02:49;;;;;;;4.80;3.13;;;;;;;18.16;40.13;102946.66;5097907;28;20098;-39
2022/03/06 09:05:16;;;;;;;4.07;2.40;;;;;;;18.18;40.12;102948.28;5100561;28;20051;-39
2022/03/06 09:07:43;;;;;;;3.72;2.60;;;;;;;18.20;40.04;102943.66;5100649;28;20035;-38
2022/03/06 09:10:09;;;;;;;3.78;2.30;;;;;;;18.22;39.91;102947.09;5103946;28;20101;-38
2022/03/06 09:12:37;;;;;;;3.88;2.50;;;;;;;18.24;39.96;102947.00;5098905;28;20207;-39
2022/03/06 09:15:05;;;;;;;5.25;3.00;;;;;;;18.28;39.85;102944.97;5102543;28;20071;-38
2022/03/06 09:17:32;;;;;;;3.83;2.58;;;;;;;18.29;39.86;102941.31;5101608;28;20046;-38
2022/03/06 09:19:58;;;;;;;6.80;2.78;;;;;;;18.31;40.01;102940.25;5098071;28;20048;-38
2022/03/06 09:22:25;;;;;;;3.80;2.38;;;;;;;18.32;39.90;102950.00;5097539;28;20039;-40
2022/03/06 09:24:52;;;;;;;4.18;2.53;;;;;;;18.35;40.04;102935.53;5101400;28;20054;-38
2022/03/06 09:27:18;;;;;;;4.40;2.38;;;;;;;18.38;39.70;102935.34;5097777;28;20038;-38
2022/03/06 09:29:45;;;;;;;4.30;2.40;;;;;;;18.41;39.72;102945.84;5101095;28;20579;-39
2022/03/06 09:32:13;;;;;;;3.65;2.30;;;;;;;18.43;39.74;102934.03;5099718;28;20040;-39
2022/03/06 09:34:40;;;;;;;3.30;2.25;;;;;;;18.47;39.70;102942.75;5102669;28;20041;-38
2022/03/06 09:37:06;;;;;;;3.20;2.15;;;;;;;18.49;39.79;102935.44;5102158;28;20048;-38
2022/03/06 09:39:33;;;;;;;4.78;2.42;;;;;;;18.52;39.69;102937.06;5098818;28;20066;-39
2022/03/06 09:42:00;;;;;;;3.30;2.30;;;;;;;18.54;39.80;102936.00;5102584;28;20062;-38
2022/03/06 09:44:27;;;;;;;4.13;2.15;;;;;;;18.59;39.83;102943.72;5103867;28;20079;-39
2022/03/06 09:46:57;;;;;;;4.15;2.17;;;;;;;18.62;39.66;102940.84;5100783;27;20063;-39
2022/03/06 09:49:25;;;;;;;3.85;2.17;;;;;;;18.66;39.33;102935.16;5100806;28;20040;-38
2022/03/06 09:51:51;;;;;;;3.60;2.38;;;;;;;18.69;39.71;102937.63;5103364;28;20118;-39
2022/03/06 09:54:18;;;;;;;4.50;2.45;;;;;;;18.73;39.21;102936.47;5100717;28;20051;-39
2022/03/06 09:56:45;;;;;;;4.57;3.00;;;;;;;18.77;39.31;102938.91;5100544;28;20039;-39
2022/03/06 09:59:12;;;;;;;9.27;2.95;;;;;;;18.81;39.59;102941.28;5096647;28;20044;-39
2022/03/06 10:01:38;;;;;;;5.88;3.13;;;;;;;18.83;39.42;102936.69;5104561;28;20407;-39
2022/03/06 10:04:25;;;;;;;4.85;2.75;;;;;;;18.87;39.17;102937.31;5102629;28;21359;-39
2022/03/06 10:06:58;;;;;;;4.35;2.70;;;;;;;18.90;39.33;102940.66;5100398;28;20055;-40
2022/03/06 10:09:25;;;;;;;4.80;3.05;;;;;;;18.95;38.73;102940.34;5095962;28;20052;-39
2022/03/06 10:11:54;;;;;;;4.13;2.70;;;;;;;18.97;39.40;102944.63;5098936;28;20093;-39
2022/03/06 10:14:56;;;;;;;4.45;3.08;;;;;;;19.01;39.40;102950.63;5101936;28;20067;-39
2022/03/06 10:17:24;;;;;;;4.68;2.80;;;;;;;19.04;38.78;102942.34;5027001;28;20049;-39
2022/03/06 10:20:01;;;;;;;3.95;2.78;;;;;;;19.07;39.26;102949.34;5082625;28;20148;-40
2022/03/06 10:22:31;;;;;;;4.35;2.83;;;;;;;19.11;39.06;102949.03;5096131;28;20063;-40
2022/03/06 10:25:05;;;;;;;5.07;2.70;;;;;;;19.12;38.90;102950.72;5104905;28;20052;-39
2022/03/06 10:27:53;;;;;;;3.95;2.70;;;;;;;19.14;38.92;102946.13;5095369;28;20047;-40
2022/03/06 10:30:41;;;;;;;6.30;2.75;;;;;;;19.17;39.24;102937.81;5099643;28;20044;-39
2022/03/06 10:33:19;;;;;;;12.00;2.75;;;;;;;19.21;39.65;102947.38;5101117;28;20039;-39
2022/03/06 10:35:48;;;;;;;9.00;2.63;;;;;;;19.24;39.53;102943.63;5099168;28;20046;-40
2022/03/06 10:38:27;;;;;;;8.70;2.90;;;;;;;19.27;39.66;102945.25;5102450;28;20047;-40
2022/03/06 10:40:56;;;;;;;12.48;3.30;;;;;;;19.29;39.79;102948.66;5100447;28;20052;-40
2022/03/06 10:43:31;;;;;;;11.82;3.85;;;;;;;19.31;40.00;102952.13;5098808;28;20053;-39
2022/03/06 10:46:14;;;;;;;12.40;3.78;;;;;;;19.32;39.57;102948.44;5102590;28;20046;-39
2022/03/06 10:48:43;;;;;;;22.10;5.43;;;;;;;19.35;39.59;102951.78;5097980;28;20059;-39
2022/03/06 10:51:12;;;;;;;22.00;5.07;;;;;;;19.37;40.01;102951.66;5097830;28;20203;-40
2022/03/06 10:53:39;;;;;;;25.13;5.55;;;;;;;19.39;39.33;102950.59;5102769;28;20138;-39
2022/03/06 10:56:12;;;;;;;11.57;4.65;;;;;;;19.41;39.65;102945.09;5100260;28;20039;-39
2022/03/06 10:58:42;;;;;;;21.63;6.13;;;;;;;19.41;39.44;102954.00;5098461;28;20067;-39
2022/03/06 11:01:26;;;;;;;20.48;5.28;;;;;;;19.44;40.25;102952.94;5101597;28;20469;-39
2022/03/06 11:03:53;;;;;;;13.07;5.43;;;;;;;19.44;39.80;102950.25;5098467;28;20063;-40
2022/03/06 11:06:21;;;;;;;18.42;5.10;;;;;;;19.46;39.75;102948.31;5099401;28;20052;-40
2022/03/06 11:08:48;;;;;;;19.30;5.60;;;;;;;19.46;39.93;102948.31;5101387;28;20050;-40
2022/03/06 11:11:20;;;;;;;14.73;4.35;;;;;;;19.47;39.15;102942.81;5101735;28;20063;-40
2022/03/06 11:13:47;;;;;;;9.80;4.72;;;;;;;19.46;39.67;102943.78;5098466;28;20466;-39
2022/03/06 11:16:14;;;;;;;16.40;5.57;;;;;;;19.46;39.40;102945.63;5099677;28;20046;-38
2022/03/06 11:18:42;;;;;;;9.65;4.85;;;;;;;19.46;39.77;102946.47;5101141;28;20043;-39
2022/03/06 11:21:09;;;;;;;11.48;4.40;;;;;;;19.46;39.10;102942.94;5103646;28;20066;-39
2022/03/06 11:23:43;;;;;;;10.90;5.00;;;;;;;19.46;39.74;102954.56;5097385;28;20047;-39
2022/03/06 11:26:09;;;;;;;10.30;4.28;;;;;;;19.46;39.66;102943.78;5101633;28;20609;-38